createdAt,value
2019-05-23T00:00:34.438Z,8.90
2019-05-23T00:03:04.392Z,9.60
2019-05-23T00:05:38.769Z,8.60
2019-05-23T00:08:24.196Z,9.20
2019-05-23T00:10:55.854Z,8.70
2019-05-23T00:13:49.284Z,8.03
2019-05-23T00:16:21.036Z,8.80
2019-05-23T00:18:51.924Z,8.77
2019-05-23T00:21:20.949Z,9.40
2019-05-23T00:23:49.448Z,8.30
2019-05-23T00:26:17.607Z,9.50
2019-05-23T00:28:47.284Z,9.63
2019-05-23T00:31:21.882Z,9.33
2019-05-23T00:33:50.534Z,8.70
2019-05-23T00:36:18.545Z,8.93
2019-05-23T00:38:46.737Z,9.20
2019-05-23T00:41:15.021Z,9.40
2019-05-23T00:43:43.113Z,9.17
2019-05-23T00:46:11.186Z,9.70
2019-05-23T00:48:40.374Z,8.57
2019-05-23T00:51:09.658Z,9.20
2019-05-23T00:53:38.418Z,8.70
2019-05-23T00:56:08.798Z,8.47
2019-05-23T00:58:37.981Z,8.40
2019-05-23T01:01:06.723Z,8.30
2019-05-23T01:03:35.557Z,8.77
2019-05-23T01:06:04.246Z,8.67
2019-05-23T01:08:33.809Z,8.43
2019-05-23T01:11:01.792Z,8.73
2019-05-23T01:13:29.945Z,9.37
2019-05-23T01:15:58.878Z,8.10
2019-05-23T01:18:27.289Z,8.40
2019-05-23T01:21:20.466Z,9.57
2019-05-23T01:23:56.241Z,9.10
2019-05-23T01:26:24.365Z,8.90
2019-05-23T01:28:53.089Z,8.80
2019-05-23T01:31:25.024Z,8.47
2019-05-23T01:33:54.018Z,8.13
2019-05-23T01:36:22.982Z,9.97
2019-05-23T01:38:50.965Z,9.67
2019-05-23T01:41:20.758Z,8.87
2019-05-23T01:43:49.594Z,8.53
2019-05-23T01:46:17.725Z,11.10
2019-05-23T01:48:45.704Z,9.90
2019-05-23T01:51:13.877Z,9.63
2019-05-23T01:53:41.941Z,10.70
2019-05-23T01:56:10.850Z,10.27
2019-05-23T01:58:39.828Z,10.33
2019-05-23T02:01:07.770Z,9.63
2019-05-23T02:03:36.481Z,9.63
2019-05-23T02:06:04.946Z,9.80
2019-05-23T02:08:33.739Z,9.70
2019-05-23T02:11:01.810Z,9.27
2019-05-23T02:13:30.465Z,9.17
2019-05-23T02:15:58.476Z,8.83
2019-05-23T02:18:28.159Z,9.30
2019-05-23T02:20:56.367Z,10.23
2019-05-23T02:23:24.833Z,10.00
2019-05-23T02:25:53.522Z,9.70
2019-05-23T02:28:21.902Z,9.10
2019-05-23T02:30:51.373Z,9.90
2019-05-23T02:33:19.998Z,9.57
2019-05-23T02:35:47.957Z,9.00
2019-05-23T02:38:33.845Z,9.40
2019-05-23T02:41:19.672Z,8.80
2019-05-23T02:43:51.799Z,9.10
2019-05-23T02:46:29.231Z,8.27
2019-05-23T02:49:00.998Z,9.10
2019-05-23T02:51:30.987Z,9.20
2019-05-23T02:53:59.542Z,9.37
2019-05-23T02:56:29.408Z,9.13
2019-05-23T02:59:02.964Z,9.30
2019-05-23T03:01:52.149Z,8.97
2019-05-23T03:04:24.736Z,9.43
2019-05-23T03:06:53.993Z,9.80
2019-05-23T03:09:23.496Z,10.20
2019-05-23T03:11:52.963Z,10.40
2019-05-23T03:14:22.280Z,10.10
2019-05-23T03:16:52.077Z,9.70
2019-05-23T03:19:36.922Z,10.20
2019-05-23T03:22:24.438Z,9.30
2019-05-23T03:24:53.885Z,9.23
2019-05-23T03:27:23.475Z,9.67
2019-05-23T03:29:51.597Z,9.40
2019-05-23T03:32:53.727Z,9.53
2019-05-23T03:35:32.105Z,8.57
2019-05-23T03:38:01.818Z,8.10
2019-05-23T03:40:30.403Z,8.33
2019-05-23T03:42:58.434Z,9.30
2019-05-23T03:45:30.409Z,8.70
2019-05-23T03:47:58.382Z,8.37
2019-05-23T03:50:26.409Z,8.37
2019-05-23T03:52:54.914Z,8.37
2019-05-23T03:55:23.718Z,8.60
2019-05-23T03:57:52.901Z,9.00
2019-05-23T04:00:22.975Z,8.70
2019-05-23T04:02:51.305Z,8.87
2019-05-23T04:05:19.927Z,8.60
2019-05-23T04:07:48.373Z,9.63
2019-05-23T04:10:16.334Z,9.00
2019-05-23T04:12:44.910Z,8.83
2019-05-23T04:15:14.411Z,8.90
2019-05-23T04:17:42.812Z,8.93
2019-05-23T04:20:10.780Z,8.87
2019-05-23T04:22:38.737Z,8.90
2019-05-23T04:25:06.886Z,9.60
2019-05-23T04:27:35.112Z,9.90
2019-05-23T04:30:03.089Z,10.57
2019-05-23T04:32:31.321Z,10.23
2019-05-23T04:34:59.229Z,10.57
2019-05-23T04:37:27.395Z,10.00
2019-05-23T04:39:55.458Z,10.33
2019-05-23T04:42:23.434Z,10.00
2019-05-23T04:44:51.395Z,10.30
2019-05-23T04:47:19.800Z,11.30
2019-05-23T04:49:48.562Z,10.17
2019-05-23T04:52:16.870Z,9.63
2019-05-23T04:54:44.903Z,9.93
2019-05-23T04:57:14.435Z,9.87
2019-05-23T04:59:42.372Z,9.97
2019-05-23T05:02:24.929Z,9.70
2019-05-23T05:04:40.635Z,10.23
2019-05-23T05:07:08.663Z,10.10
2019-05-23T05:09:36.815Z,10.20
2019-05-23T05:12:04.902Z,9.97
2019-05-23T05:14:32.955Z,9.93
2019-05-23T05:17:01.807Z,10.23
2019-05-23T05:19:29.825Z,9.90
2019-05-23T05:21:57.824Z,9.90
2019-05-23T05:24:25.855Z,9.47
2019-05-23T05:26:53.825Z,10.00
2019-05-23T05:29:21.815Z,10.30
2019-05-23T05:31:50.057Z,8.60
2019-05-23T05:34:17.973Z,9.77
2019-05-23T05:36:46.158Z,10.17
2019-05-23T05:39:15.625Z,9.47
2019-05-23T05:41:43.601Z,9.70
2019-05-23T05:44:12.060Z,9.30
2019-05-23T05:46:40.056Z,10.60
2019-05-23T05:49:09.727Z,10.17
2019-05-23T05:51:37.815Z,9.37
2019-05-23T05:54:07.130Z,9.60
2019-05-23T05:56:35.091Z,10.10
2019-05-23T05:59:03.071Z,9.07
2019-05-23T06:01:34.376Z,9.10
2019-05-23T06:04:01.402Z,9.40
2019-05-23T06:06:37.785Z,10.10
2019-05-23T06:09:15.436Z,9.47
2019-05-23T06:11:43.413Z,9.67
2019-05-23T06:14:11.345Z,8.40
2019-05-23T06:16:39.833Z,9.20
2019-05-23T06:19:07.917Z,9.07
2019-05-23T06:21:36.633Z,9.83
2019-05-23T06:24:05.010Z,9.30
2019-05-23T06:26:33.696Z,10.30
2019-05-23T06:29:01.729Z,10.47
2019-05-23T06:31:31.275Z,22.33
2019-05-23T06:33:59.522Z,11.07
2019-05-23T06:36:27.684Z,10.40
2019-05-23T06:38:56.677Z,10.03
2019-05-23T06:41:25.197Z,9.80
2019-05-23T06:43:53.253Z,9.93
2019-05-23T06:46:21.298Z,9.70
2019-05-23T06:48:49.289Z,9.47
2019-05-23T06:51:17.241Z,9.63
2019-05-23T06:53:45.737Z,10.10
2019-05-23T06:56:13.999Z,10.23
2019-05-23T06:58:42.162Z,10.50
2019-05-23T07:01:10.252Z,9.73
2019-05-23T07:03:42.948Z,9.20
2019-05-23T07:06:09.326Z,10.43
2019-05-23T07:08:37.330Z,10.50
2019-05-23T07:11:05.354Z,9.80
2019-05-23T07:13:34.863Z,10.63
2019-05-23T07:16:02.904Z,10.23
2019-05-23T07:18:30.844Z,10.37
2019-05-23T07:20:58.840Z,11.27
2019-05-23T07:23:26.817Z,11.40
2019-05-23T07:25:54.870Z,12.67
2019-05-23T07:28:22.808Z,10.70
2019-05-23T07:30:51.316Z,10.83
2019-05-23T07:33:19.280Z,11.77
2019-05-23T07:35:47.326Z,14.27
2019-05-23T07:38:15.262Z,18.23
2019-05-23T07:40:43.854Z,18.93
2019-05-23T07:43:11.967Z,11.30
2019-05-23T07:45:58.976Z,12.37
2019-05-23T07:48:28.649Z,12.00
2019-05-23T07:50:56.755Z,10.77
2019-05-23T07:53:34.699Z,10.83
2019-05-23T07:56:03.874Z,10.50
2019-05-23T07:58:31.825Z,10.10
2019-05-23T08:01:01.784Z,8.70
2019-05-23T08:03:30.407Z,7.80
2019-05-23T08:05:58.718Z,8.50
2019-05-23T08:08:27.116Z,8.07
2019-05-23T08:10:55.476Z,8.40
2019-05-23T08:13:24.463Z,7.60
2019-05-23T08:15:52.518Z,7.67
2019-05-23T08:18:21.267Z,7.83
2019-05-23T08:20:49.191Z,7.50
2019-05-23T08:23:17.241Z,7.70
2019-05-23T08:25:45.252Z,7.50
2019-05-23T08:28:13.784Z,6.90
2019-05-23T08:30:42.013Z,8.23
2019-05-23T08:33:12.145Z,7.53
2019-05-23T08:35:40.286Z,7.50
2019-05-23T08:38:08.766Z,7.37
2019-05-23T08:40:37.608Z,8.30
2019-05-23T08:43:05.632Z,7.50
2019-05-23T08:45:33.784Z,7.67
2019-05-23T08:48:01.879Z,7.83
2019-05-23T08:50:29.971Z,7.03
2019-05-23T08:52:58.398Z,7.87
2019-05-23T08:55:26.660Z,8.30
2019-05-23T08:57:55.125Z,8.10
2019-05-23T09:00:24.970Z,7.80
2019-05-23T09:02:53.272Z,7.53
2019-05-23T09:05:23.508Z,8.20
2019-05-23T09:07:52.062Z,8.20
2019-05-23T09:10:20.991Z,7.90
2019-05-23T09:12:49.137Z,7.57
2019-05-23T09:15:17.286Z,8.10
2019-05-23T09:17:52.759Z,7.57
2019-05-23T09:20:17.035Z,7.87
2019-05-23T09:22:44.999Z,7.70
2019-05-23T09:25:13.407Z,7.83
2019-05-23T09:27:41.379Z,8.03
2019-05-23T09:30:10.748Z,8.07
2019-05-23T09:32:38.831Z,8.87
2019-05-23T09:35:20.515Z,7.70
2019-05-23T09:37:37.744Z,7.80
2019-05-23T09:40:06.355Z,7.67
2019-05-23T09:42:34.379Z,8.27
2019-05-23T09:45:02.500Z,7.77
2019-05-23T09:47:30.561Z,8.00
2019-05-23T09:49:58.761Z,7.37
2019-05-23T09:52:26.937Z,7.90
2019-05-23T09:54:55.071Z,7.90
2019-05-23T09:57:23.437Z,7.60
2019-05-23T09:59:51.507Z,7.53
2019-05-23T10:02:19.486Z,7.60
2019-05-23T10:04:47.721Z,7.63
2019-05-23T10:07:16.232Z,8.00
2019-05-23T10:09:44.473Z,7.90
2019-05-23T10:12:12.834Z,7.87
2019-05-23T10:14:40.851Z,7.80
2019-05-23T10:17:08.883Z,8.30
2019-05-23T10:19:36.907Z,7.37
2019-05-23T10:22:05.930Z,6.50
2019-05-23T10:24:33.976Z,7.47
2019-05-23T10:27:02.031Z,7.13
2019-05-23T10:29:30.422Z,7.93
2019-05-23T10:31:58.485Z,7.90
2019-05-23T10:34:26.456Z,7.50
2019-05-23T10:36:54.833Z,6.93
2019-05-23T10:39:23.023Z,7.27
2019-05-23T10:41:51.032Z,7.00
2019-05-23T10:44:19.056Z,7.63
2019-05-23T10:46:47.561Z,7.30
2019-05-23T10:49:15.610Z,7.63
2019-05-23T10:51:43.656Z,7.60
2019-05-23T10:54:12.339Z,7.63
2019-05-23T10:56:40.337Z,7.60
2019-05-23T10:59:08.401Z,7.27
2019-05-23T11:01:36.567Z,7.67
2019-05-23T11:04:05.936Z,7.23
2019-05-23T11:06:34.455Z,7.90
2019-05-23T11:09:03.526Z,7.53
2019-05-23T11:11:31.517Z,7.20
2019-05-23T11:13:59.614Z,7.90
2019-05-23T11:16:27.953Z,7.50
2019-05-23T11:18:56.017Z,7.87
2019-05-23T11:21:24.039Z,7.93
2019-05-23T11:23:53.151Z,7.83
2019-05-23T11:26:21.261Z,8.63
2019-05-23T11:28:49.276Z,8.30
2019-05-23T11:31:18.144Z,8.03
2019-05-23T11:33:46.094Z,7.57
2019-05-23T11:36:14.667Z,8.37
2019-05-23T11:38:42.772Z,7.17
2019-05-23T11:41:10.819Z,7.27
2019-05-23T11:43:39.314Z,8.23
2019-05-23T11:46:27.753Z,7.33
2019-05-23T11:48:55.857Z,6.67
2019-05-23T11:51:25.864Z,7.00
2019-05-23T11:54:06.701Z,6.83
2019-05-23T11:56:23.873Z,12.07
2019-05-23T11:58:51.805Z,7.80
2019-05-23T12:01:38.221Z,7.40
2019-05-23T12:04:23.466Z,7.67
2019-05-23T12:07:16.430Z,8.47
2019-05-23T12:09:44.464Z,7.90
2019-05-23T12:12:12.477Z,8.23
2019-05-23T12:14:41.050Z,8.17
2019-05-23T12:17:09.444Z,8.10
2019-05-23T12:19:37.423Z,7.20
2019-05-23T12:22:05.389Z,7.27
2019-05-23T12:24:35.538Z,7.37
2019-05-23T12:27:03.256Z,7.10
2019-05-23T12:29:31.340Z,7.47
2019-05-23T12:31:59.936Z,7.87
2019-05-23T12:34:27.943Z,7.47
2019-05-23T12:37:17.083Z,7.43
2019-05-23T12:39:25.672Z,7.30
2019-05-23T12:41:53.963Z,7.47
2019-05-23T12:44:22.076Z,7.20
2019-05-23T12:46:50.122Z,7.33
2019-05-23T12:49:55.479Z,6.73
2019-05-23T12:52:24.193Z,7.13
2019-05-23T12:54:52.294Z,7.80
2019-05-23T12:57:20.288Z,7.07
2019-05-23T12:59:48.356Z,6.60
2019-05-23T13:02:20.980Z,7.77
2019-05-23T13:04:48.978Z,7.00
2019-05-23T13:07:34.529Z,7.40
2019-05-23T13:09:47.133Z,8.13
2019-05-23T13:12:16.618Z,6.83
2019-05-23T13:14:45.369Z,7.33
2019-05-23T13:17:13.364Z,7.03
2019-05-23T13:19:41.632Z,7.30
2019-05-23T13:22:11.195Z,7.67
2019-05-23T13:24:52.122Z,7.00
2019-05-23T13:27:08.804Z,7.37
2019-05-23T13:29:36.990Z,7.30
2019-05-23T13:32:06.246Z,6.80
2019-05-23T13:34:34.535Z,8.00
2019-05-23T13:37:03.572Z,7.73
2019-05-23T13:39:31.692Z,6.87
2019-05-23T13:41:59.590Z,7.40
2019-05-23T13:44:34.708Z,7.10
2019-05-23T13:46:57.357Z,13.00
2019-05-23T13:49:25.465Z,7.13
2019-05-23T13:51:53.498Z,8.40
2019-05-23T13:54:21.878Z,7.20
2019-05-23T13:56:50.238Z,7.00
2019-05-23T13:59:18.358Z,7.60
2019-05-23T14:01:46.426Z,6.87
2019-05-23T14:04:14.578Z,6.97
2019-05-23T14:06:42.557Z,7.70
2019-05-23T14:09:10.777Z,8.20
2019-05-23T14:11:39.026Z,7.30
2019-05-23T14:14:07.771Z,6.83
2019-05-23T14:16:44.093Z,8.23
2019-05-23T14:19:12.009Z,7.40
2019-05-23T14:21:40.299Z,7.30
2019-05-23T14:24:08.255Z,7.07
2019-05-23T14:26:43.482Z,7.10
2019-05-23T14:29:11.690Z,6.77
2019-05-23T14:31:46.114Z,7.07
2019-05-23T14:34:16.626Z,7.10
2019-05-23T14:36:50.815Z,7.60
2019-05-23T14:39:28.327Z,7.90
2019-05-23T14:42:01.606Z,7.70
2019-05-23T14:44:30.006Z,7.00
2019-05-23T14:47:16.013Z,10.00
2019-05-23T14:49:49.711Z,7.70
2019-05-23T14:52:29.861Z,8.33
2019-05-23T14:55:01.498Z,7.53
2019-05-23T14:57:29.605Z,7.67
2019-05-23T14:59:57.643Z,7.43
2019-05-23T15:02:26.228Z,9.43
2019-05-23T15:04:54.192Z,7.60
2019-05-23T15:07:22.213Z,7.70
2019-05-23T15:09:50.169Z,8.50
2019-05-23T15:12:18.237Z,7.80
2019-05-23T15:14:46.396Z,8.20
2019-05-23T15:17:14.364Z,7.80
2019-05-23T15:19:45.279Z,8.13
2019-05-23T15:22:12.170Z,9.93
2019-05-23T15:24:40.344Z,7.53
2019-05-23T15:27:08.484Z,8.07
2019-05-23T15:29:36.479Z,7.73
2019-05-23T15:32:05.048Z,8.90
2019-05-23T15:34:35.155Z,7.80
2019-05-23T15:37:02.636Z,8.27
2019-05-23T15:39:31.281Z,8.57
2019-05-23T15:41:59.199Z,8.83
2019-05-23T15:44:29.466Z,7.57
2019-05-23T15:46:57.245Z,9.00
2019-05-23T15:49:25.793Z,9.20
2019-05-23T15:52:03.360Z,8.60
2019-05-23T15:54:49.310Z,8.07
2019-05-23T15:57:29.957Z,7.97
2019-05-23T16:00:04.935Z,7.97
2019-05-23T16:02:36.769Z,8.30
2019-05-23T16:05:05.544Z,8.10
2019-05-23T16:07:33.719Z,8.30
2019-05-23T16:10:02.115Z,8.27
2019-05-23T16:12:30.217Z,8.57
2019-05-23T16:14:58.350Z,9.20
2019-05-23T16:17:26.359Z,8.07
2019-05-23T16:19:54.297Z,8.30
2019-05-23T16:22:22.278Z,8.87
2019-05-23T16:24:50.326Z,8.10
2019-05-23T16:27:18.554Z,8.47
2019-05-23T16:29:46.607Z,8.47
2019-05-23T16:32:14.685Z,8.10
2019-05-23T16:34:42.966Z,8.33
2019-05-23T16:37:11.016Z,7.47
2019-05-23T16:39:47.464Z,8.17
2019-05-23T16:42:11.024Z,8.23
2019-05-23T16:44:39.027Z,8.10
2019-05-23T16:47:07.401Z,8.10
2019-05-23T16:49:35.366Z,8.23
2019-05-23T16:52:03.636Z,8.50
2019-05-23T16:54:36.311Z,8.20
2019-05-23T16:57:26.563Z,8.20
2019-05-23T17:00:13.778Z,8.00
2019-05-23T17:02:49.529Z,8.27
2019-05-23T17:05:42.608Z,8.30
2019-05-23T17:08:44.924Z,7.60
2019-05-23T17:11:35.153Z,8.00
2019-05-23T17:14:11.046Z,8.33
2019-05-23T17:17:05.515Z,9.17
2019-05-23T17:19:40.771Z,9.40
2019-05-23T17:22:17.980Z,8.00
2019-05-23T17:24:54.262Z,8.53
2019-05-23T17:27:41.417Z,8.30
2019-05-23T17:30:43.998Z,8.23
2019-05-23T17:33:13.842Z,7.80
2019-05-23T17:35:41.961Z,8.00
2019-05-23T17:38:10.007Z,8.33
2019-05-23T17:40:38.085Z,8.37
2019-05-23T17:43:06.194Z,8.70
2019-05-23T17:45:34.588Z,8.33
2019-05-23T17:48:03.093Z,8.80
2019-05-23T17:50:34.538Z,9.10
2019-05-23T17:53:01.010Z,9.33
2019-05-23T17:55:29.967Z,11.80
2019-05-23T17:57:58.037Z,17.80
2019-05-23T18:00:30.061Z,11.10
2019-05-23T18:02:58.421Z,9.30
2019-05-23T18:05:27.040Z,8.90
2019-05-23T18:07:55.271Z,8.40
2019-05-23T18:10:42.842Z,9.93
2019-05-23T18:12:54.170Z,9.07
2019-05-23T18:15:22.553Z,8.60
2019-05-23T18:17:50.496Z,9.10
2019-05-23T18:20:19.453Z,9.10
2019-05-23T18:22:47.486Z,9.00
2019-05-23T18:25:17.110Z,8.50
2019-05-23T18:27:45.594Z,8.17
2019-05-23T18:30:32.941Z,8.97
2019-05-23T18:33:01.537Z,9.87
2019-05-23T18:35:29.838Z,9.30
2019-05-23T18:37:58.016Z,8.57
2019-05-23T18:40:26.206Z,8.67
2019-05-23T18:42:54.147Z,10.97
2019-05-23T18:45:22.573Z,8.60
2019-05-23T18:47:50.626Z,8.67
2019-05-23T18:50:19.222Z,10.30
2019-05-23T18:52:47.189Z,9.10
2019-05-23T18:55:15.228Z,9.23
2019-05-23T18:57:43.232Z,8.20
2019-05-23T19:00:11.503Z,8.37
2019-05-23T19:02:40.677Z,8.43
2019-05-23T19:05:09.276Z,9.70
2019-05-23T19:07:38.043Z,9.40
2019-05-23T19:10:06.975Z,8.67
2019-05-23T19:12:35.068Z,9.90
2019-05-23T19:15:03.238Z,12.13
2019-05-23T19:17:31.286Z,17.20
2019-05-23T19:19:59.229Z,16.40
2019-05-23T19:22:28.311Z,9.53
2019-05-23T19:24:56.308Z,10.07
2019-05-23T19:27:24.508Z,10.53
2019-05-23T19:29:52.573Z,10.10
2019-05-23T19:32:20.630Z,8.77
2019-05-23T19:34:51.178Z,9.30
2019-05-23T19:37:20.942Z,8.83
2019-05-23T19:39:49.165Z,8.83
2019-05-23T19:42:17.527Z,9.50
2019-05-23T19:44:45.619Z,9.00
2019-05-23T19:47:13.702Z,8.50
2019-05-23T19:49:41.755Z,9.40
2019-05-23T19:52:10.265Z,9.00
2019-05-23T19:54:38.438Z,9.27
2019-05-23T19:57:06.621Z,10.23
2019-05-23T19:59:34.676Z,9.40
2019-05-23T20:02:16.264Z,9.17
2019-05-23T20:04:49.889Z,11.27
2019-05-23T20:07:18.171Z,10.40
2019-05-23T20:09:46.204Z,9.73
2019-05-23T20:12:14.941Z,9.23
2019-05-23T20:14:43.008Z,10.00
2019-05-23T20:17:11.264Z,9.47
2019-05-23T20:19:39.237Z,9.67
2019-05-23T20:22:07.289Z,9.70
2019-05-23T20:24:35.302Z,9.63
2019-05-23T20:27:03.622Z,9.00
2019-05-23T20:29:31.635Z,9.60
2019-05-23T20:31:59.833Z,8.73
2019-05-23T20:34:28.348Z,9.73
2019-05-23T20:36:56.370Z,11.40
2019-05-23T20:39:24.860Z,10.20
2019-05-23T20:41:52.913Z,10.07
2019-05-23T20:44:20.896Z,10.10
2019-05-23T20:46:49.390Z,9.90
2019-05-23T20:49:17.729Z,9.10
2019-05-23T20:51:46.033Z,9.67
2019-05-23T20:54:14.020Z,9.60
2019-05-23T20:56:41.954Z,9.03
2019-05-23T20:59:10.345Z,9.90
2019-05-23T21:01:40.130Z,9.17
2019-05-23T21:04:08.625Z,9.50
2019-05-23T21:06:36.617Z,10.40
2019-05-23T21:09:06.236Z,10.53
2019-05-23T21:11:34.239Z,10.40
2019-05-23T21:14:02.265Z,9.60
2019-05-23T21:16:31.127Z,10.07
2019-05-23T21:19:01.113Z,10.00
2019-05-23T21:21:31.741Z,10.20
2019-05-23T21:23:59.780Z,10.63
2019-05-23T21:26:31.424Z,9.97
2019-05-23T21:29:01.622Z,10.70
2019-05-23T21:31:33.144Z,11.40
2019-05-23T21:34:03.683Z,9.70
2019-05-23T21:36:34.467Z,9.40
2019-05-23T21:39:04.069Z,10.50
2019-05-23T21:41:33.791Z,10.60
2019-05-23T21:44:04.028Z,10.10
2019-05-23T21:46:32.497Z,10.57
2019-05-23T21:49:00.531Z,10.37
2019-05-23T21:51:28.505Z,11.10
2019-05-23T21:53:56.497Z,12.97
2019-05-23T21:56:24.482Z,11.77
2019-05-23T21:58:52.534Z,11.17
2019-05-23T22:01:38.828Z,9.33
2019-05-23T22:04:28.765Z,10.30
2019-05-23T22:07:03.741Z,11.43
2019-05-23T22:09:32.063Z,10.97
2019-05-23T22:12:01.208Z,9.70
2019-05-23T22:14:29.148Z,9.77
2019-05-23T22:16:57.063Z,9.40
2019-05-23T22:19:26.509Z,11.40
2019-05-23T22:21:54.550Z,11.23
2019-05-23T22:24:22.815Z,10.30
2019-05-23T22:26:50.865Z,10.00
2019-05-23T22:29:18.873Z,10.30
2019-05-23T22:31:46.953Z,10.07
2019-05-23T22:34:37.033Z,10.20
2019-05-23T22:37:10.561Z,9.33
2019-05-23T22:39:38.576Z,9.33
2019-05-23T22:42:06.658Z,9.83
2019-05-23T22:44:34.596Z,10.60
2019-05-23T22:47:02.631Z,11.30
2019-05-23T22:49:30.535Z,10.60
2019-05-23T22:51:58.510Z,10.13
2019-05-23T22:54:26.498Z,10.73
2019-05-23T22:56:54.585Z,12.17
2019-05-23T22:59:22.669Z,9.83
2019-05-23T23:01:50.735Z,11.80
2019-05-23T23:04:18.992Z,11.87
2019-05-23T23:06:47.034Z,9.90
2019-05-23T23:09:15.852Z,10.90
2019-05-23T23:11:43.836Z,9.60
2019-05-23T23:14:11.832Z,9.70
2019-05-23T23:16:39.853Z,10.50
2019-05-23T23:19:08.108Z,10.20
2019-05-23T23:21:36.201Z,10.00
2019-05-23T23:24:04.316Z,10.30
2019-05-23T23:26:32.360Z,11.17
2019-05-23T23:29:00.328Z,10.40
2019-05-23T23:31:28.289Z,9.67
2019-05-23T23:33:56.244Z,9.90
2019-05-23T23:36:24.231Z,11.43
2019-05-23T23:38:52.212Z,11.93
2019-05-23T23:41:20.151Z,10.50
2019-05-23T23:43:58.748Z,10.30
2019-05-23T23:46:35.396Z,9.50
2019-05-23T23:49:21.154Z,10.10
2019-05-23T23:52:06.931Z,10.60
2019-05-23T23:54:52.868Z,10.97
2019-05-23T23:57:38.597Z,10.70
